sensor_id;sensor_type;location;lat;lon;timestamp;P1;durP1;ratioP1;P2;durP2;ratioP2
20322;SDS011;10319;52.206;20.996;2022-07-23T00:01:10;8.63;;;2.88;;
20322;SDS011;10319;52.206;20.996;2022-07-23T00:03:35;9.85;;;3.13;;
20322;SDS011;10319;52.206;20.996;2022-07-23T00:06:00;10.83;;;2.90;;
20322;SDS011;10319;52.206;20.996;2022-07-23T00:08:26;8.50;;;2.80;;
20322;SDS011;10319;52.206;20.996;2022-07-23T00:10:51;9.18;;;3.10;;
20322;SDS011;10319;52.206;20.996;2022-07-23T00:13:16;7.60;;;2.80;;
20322;SDS011;10319;52.206;20.996;2022-07-23T00:15:41;8.93;;;2.70;;
20322;SDS011;10319;52.206;20.996;2022-07-23T00:18:06;9.67;;;3.07;;
20322;SDS011;10319;52.206;20.996;2022-07-23T00:20:32;9.65;;;3.00;;
20322;SDS011;10319;52.206;20.996;2022-07-23T00:22:57;8.20;;;2.80;;
20322;SDS011;10319;52.206;20.996;2022-07-23T00:25:22;12.90;;;3.33;;
20322;SDS011;10319;52.206;20.996;2022-07-23T00:27:48;11.50;;;3.35;;
20322;SDS011;10319;52.206;20.996;2022-07-23T00:30:13;8.73;;;2.90;;
20322;SDS011;10319;52.206;20.996;2022-07-23T00:32:48;10.10;;;3.13;;
20322;SDS011;10319;52.206;20.996;2022-07-23T00:35:13;9.40;;;3.03;;
20322;SDS011;10319;52.206;20.996;2022-07-23T00:37:39;8.82;;;3.08;;
20322;SDS011;10319;52.206;20.996;2022-07-23T00:40:04;9.32;;;3.00;;
20322;SDS011;10319;52.206;20.996;2022-07-23T00:42:30;8.43;;;3.08;;
20322;SDS011;10319;52.206;20.996;2022-07-23T00:44:56;8.48;;;2.90;;
20322;SDS011;10319;52.206;20.996;2022-07-23T00:47:21;7.32;;;2.70;;
20322;SDS011;10319;52.206;20.996;2022-07-23T00:49:46;9.30;;;3.27;;
20322;SDS011;10319;52.206;20.996;2022-07-23T00:52:11;10.03;;;3.20;;
20322;SDS011;10319;52.206;20.996;2022-07-23T00:54:36;8.60;;;2.90;;
20322;SDS011;10319;52.206;20.996;2022-07-23T00:57:01;10.00;;;3.08;;
20322;SDS011;10319;52.206;20.996;2022-07-23T00:59:28;9.90;;;3.03;;
20322;SDS011;10319;52.206;20.996;2022-07-23T01:01:53;8.68;;;3.10;;
20322;SDS011;10319;52.206;20.996;2022-07-23T01:04:18;9.15;;;3.15;;
20322;SDS011;10319;52.206;20.996;2022-07-23T01:06:44;9.85;;;3.25;;
20322;SDS011;10319;52.206;20.996;2022-07-23T01:09:10;9.10;;;3.00;;
20322;SDS011;10319;52.206;20.996;2022-07-23T01:11:36;8.98;;;2.95;;
20322;SDS011;10319;52.206;20.996;2022-07-23T01:14:08;9.73;;;3.08;;
20322;SDS011;10319;52.206;20.996;2022-07-23T01:16:33;9.40;;;3.15;;
20322;SDS011;10319;52.206;20.996;2022-07-23T01:18:58;9.17;;;3.00;;
20322;SDS011;10319;52.206;20.996;2022-07-23T01:21:23;11.40;;;3.60;;
20322;SDS011;10319;52.206;20.996;2022-07-23T01:23:49;10.50;;;3.53;;
20322;SDS011;10319;52.206;20.996;2022-07-23T01:26:14;10.43;;;3.25;;
20322;SDS011;10319;52.206;20.996;2022-07-23T01:28:42;9.07;;;3.13;;
20322;SDS011;10319;52.206;20.996;2022-07-23T01:31:07;9.23;;;3.10;;
20322;SDS011;10319;52.206;20.996;2022-07-23T01:33:32;9.30;;;3.15;;
20322;SDS011;10319;52.206;20.996;2022-07-23T01:35:57;9.20;;;3.00;;
20322;SDS011;10319;52.206;20.996;2022-07-23T01:38:22;8.47;;;3.00;;
20322;SDS011;10319;52.206;20.996;2022-07-23T01:40:48;9.57;;;3.30;;
20322;SDS011;10319;52.206;20.996;2022-07-23T01:43:13;9.20;;;3.20;;
20322;SDS011;10319;52.206;20.996;2022-07-23T01:45:38;10.57;;;3.30;;
20322;SDS011;10319;52.206;20.996;2022-07-23T01:48:03;12.30;;;3.72;;
20322;SDS011;10319;52.206;20.996;2022-07-23T01:50:29;9.80;;;3.08;;
20322;SDS011;10319;52.206;20.996;2022-07-23T01:52:54;12.30;;;3.50;;
20322;SDS011;10319;52.206;20.996;2022-07-23T01:55:19;11.53;;;3.50;;
20322;SDS011;10319;52.206;20.996;2022-07-23T01:57:44;12.47;;;4.30;;
20322;SDS011;10319;52.206;20.996;2022-07-23T02:00:10;11.38;;;3.55;;
20322;SDS011;10319;52.206;20.996;2022-07-23T02:02:35;12.40;;;3.97;;
20322;SDS011;10319;52.206;20.996;2022-07-23T02:05:00;11.63;;;4.10;;
20322;SDS011;10319;52.206;20.996;2022-07-23T02:07:25;14.17;;;4.53;;
20322;SDS011;10319;52.206;20.996;2022-07-23T02:09:51;12.88;;;4.38;;
20322;SDS011;10319;52.206;20.996;2022-07-23T02:12:16;14.02;;;4.30;;
20322;SDS011;10319;52.206;20.996;2022-07-23T02:14:41;13.67;;;5.00;;
20322;SDS011;10319;52.206;20.996;2022-07-23T02:17:06;14.70;;;5.33;;
20322;SDS011;10319;52.206;20.996;2022-07-23T02:19:31;14.70;;;4.78;;
20322;SDS011;10319;52.206;20.996;2022-07-23T02:21:56;13.43;;;5.10;;
20322;SDS011;10319;52.206;20.996;2022-07-23T02:24:22;14.37;;;4.80;;
20322;SDS011;10319;52.206;20.996;2022-07-23T02:26:47;14.13;;;4.97;;
20322;SDS011;10319;52.206;20.996;2022-07-23T02:29:12;14.05;;;4.57;;
20322;SDS011;10319;52.206;20.996;2022-07-23T02:31:37;13.43;;;4.90;;
20322;SDS011;10319;52.206;20.996;2022-07-23T02:34:03;13.65;;;4.88;;
20322;SDS011;10319;52.206;20.996;2022-07-23T02:36:29;17.83;;;5.00;;
20322;SDS011;10319;52.206;20.996;2022-07-23T02:38:54;13.55;;;4.93;;
20322;SDS011;10319;52.206;20.996;2022-07-23T02:41:20;13.02;;;4.80;;
20322;SDS011;10319;52.206;20.996;2022-07-23T02:43:45;13.10;;;4.43;;
20322;SDS011;10319;52.206;20.996;2022-07-23T02:46:10;11.52;;;4.15;;
20322;SDS011;10319;52.206;20.996;2022-07-23T02:48:35;12.40;;;4.38;;
20322;SDS011;10319;52.206;20.996;2022-07-23T02:51:01;15.23;;;4.95;;
20322;SDS011;10319;52.206;20.996;2022-07-23T02:53:26;14.25;;;4.68;;
20322;SDS011;10319;52.206;20.996;2022-07-23T02:55:51;14.57;;;5.00;;
20322;SDS011;10319;52.206;20.996;2022-07-23T02:58:16;12.57;;;4.83;;
20322;SDS011;10319;52.206;20.996;2022-07-23T03:00:42;12.77;;;4.65;;
20322;SDS011;10319;52.206;20.996;2022-07-23T03:03:07;12.77;;;4.82;;
20322;SDS011;10319;52.206;20.996;2022-07-23T03:05:33;13.52;;;4.80;;
20322;SDS011;10319;52.206;20.996;2022-07-23T03:07:58;12.93;;;4.68;;
20322;SDS011;10319;52.206;20.996;2022-07-23T03:10:23;13.23;;;5.00;;
20322;SDS011;10319;52.206;20.996;2022-07-23T03:12:49;14.30;;;5.40;;
20322;SDS011;10319;52.206;20.996;2022-07-23T03:15:14;11.73;;;4.20;;
20322;SDS011;10319;52.206;20.996;2022-07-23T03:17:39;13.50;;;5.00;;
20322;SDS011;10319;52.206;20.996;2022-07-23T03:20:04;13.80;;;5.72;;
20322;SDS011;10319;52.206;20.996;2022-07-23T03:22:30;14.70;;;5.40;;
20322;SDS011;10319;52.206;20.996;2022-07-23T03:24:55;13.50;;;5.22;;
20322;SDS011;10319;52.206;20.996;2022-07-23T03:27:21;14.77;;;5.45;;
20322;SDS011;10319;52.206;20.996;2022-07-23T03:29:46;15.00;;;5.82;;
20322;SDS011;10319;52.206;20.996;2022-07-23T03:32:11;15.10;;;5.95;;
20322;SDS011;10319;52.206;20.996;2022-07-23T03:34:37;13.98;;;5.43;;
20322;SDS011;10319;52.206;20.996;2022-07-23T03:37:02;15.18;;;5.32;;
20322;SDS011;10319;52.206;20.996;2022-07-23T03:39:27;13.32;;;5.18;;
20322;SDS011;10319;52.206;20.996;2022-07-23T03:41:52;12.90;;;5.20;;
20322;SDS011;10319;52.206;20.996;2022-07-23T03:44:18;12.68;;;5.03;;
20322;SDS011;10319;52.206;20.996;2022-07-23T03:46:43;13.50;;;4.95;;
20322;SDS011;10319;52.206;20.996;2022-07-23T03:49:08;14.80;;;5.53;;
20322;SDS011;10319;52.206;20.996;2022-07-23T03:51:33;13.77;;;5.30;;
20322;SDS011;10319;52.206;20.996;2022-07-23T03:53:58;12.63;;;5.00;;
20322;SDS011;10319;52.206;20.996;2022-07-23T03:56:24;12.83;;;5.03;;
20322;SDS011;10319;52.206;20.996;2022-07-23T03:58:49;12.90;;;4.72;;
20322;SDS011;10319;52.206;20.996;2022-07-23T04:01:14;13.00;;;5.03;;
20322;SDS011;10319;52.206;20.996;2022-07-23T04:03:39;13.82;;;5.35;;
20322;SDS011;10319;52.206;20.996;2022-07-23T04:06:05;15.23;;;5.73;;
20322;SDS011;10319;52.206;20.996;2022-07-23T04:08:30;14.18;;;5.40;;
20322;SDS011;10319;52.206;20.996;2022-07-23T04:10:55;13.23;;;5.38;;
20322;SDS011;10319;52.206;20.996;2022-07-23T04:13:20;14.73;;;5.53;;
20322;SDS011;10319;52.206;20.996;2022-07-23T04:15:46;13.43;;;5.18;;
20322;SDS011;10319;52.206;20.996;2022-07-23T04:18:11;13.25;;;5.03;;
20322;SDS011;10319;52.206;20.996;2022-07-23T04:20:36;13.57;;;5.43;;
20322;SDS011;10319;52.206;20.996;2022-07-23T04:23:01;14.37;;;5.27;;
20322;SDS011;10319;52.206;20.996;2022-07-23T04:25:27;13.23;;;4.93;;
20322;SDS011;10319;52.206;20.996;2022-07-23T04:27:52;15.45;;;4.93;;
20322;SDS011;10319;52.206;20.996;2022-07-23T04:30:17;13.60;;;5.20;;
20322;SDS011;10319;52.206;20.996;2022-07-23T04:32:42;13.35;;;5.13;;
20322;SDS011;10319;52.206;20.996;2022-07-23T04:35:07;13.93;;;5.03;;
20322;SDS011;10319;52.206;20.996;2022-07-23T04:37:33;12.95;;;5.10;;
20322;SDS011;10319;52.206;20.996;2022-07-23T04:39:58;14.00;;;5.30;;
20322;SDS011;10319;52.206;20.996;2022-07-23T04:42:23;13.43;;;4.87;;
20322;SDS011;10319;52.206;20.996;2022-07-23T04:44:48;14.52;;;5.38;;
20322;SDS011;10319;52.206;20.996;2022-07-23T04:47:13;17.35;;;5.78;;
20322;SDS011;10319;52.206;20.996;2022-07-23T04:49:39;13.37;;;5.20;;
20322;SDS011;10319;52.206;20.996;2022-07-23T04:52:04;12.23;;;4.87;;
20322;SDS011;10319;52.206;20.996;2022-07-23T04:54:29;12.85;;;4.70;;
20322;SDS011;10319;52.206;20.996;2022-07-23T04:56:54;12.97;;;4.87;;
20322;SDS011;10319;52.206;20.996;2022-07-23T04:59:19;12.10;;;4.25;;
20322;SDS011;10319;52.206;20.996;2022-07-23T05:01:45;12.82;;;5.05;;
20322;SDS011;10319;52.206;20.996;2022-07-23T05:04:10;12.85;;;4.82;;
20322;SDS011;10319;52.206;20.996;2022-07-23T05:06:35;12.33;;;4.57;;
20322;SDS011;10319;52.206;20.996;2022-07-23T05:09:00;13.00;;;5.18;;
20322;SDS011;10319;52.206;20.996;2022-07-23T05:11:25;12.52;;;4.53;;
20322;SDS011;10319;52.206;20.996;2022-07-23T05:13:51;13.30;;;5.03;;
20322;SDS011;10319;52.206;20.996;2022-07-23T05:16:16;14.15;;;5.20;;
20322;SDS011;10319;52.206;20.996;2022-07-23T05:18:41;15.63;;;4.95;;
20322;SDS011;10319;52.206;20.996;2022-07-23T05:21:06;13.33;;;5.07;;
20322;SDS011;10319;52.206;20.996;2022-07-23T05:23:32;14.32;;;4.68;;
20322;SDS011;10319;52.206;20.996;2022-07-23T05:25:57;12.88;;;4.90;;
20322;SDS011;10319;52.206;20.996;2022-07-23T05:28:22;13.88;;;5.28;;
20322;SDS011;10319;52.206;20.996;2022-07-23T05:30:47;12.37;;;4.90;;
20322;SDS011;10319;52.206;20.996;2022-07-23T05:33:12;11.90;;;4.93;;
20322;SDS011;10319;52.206;20.996;2022-07-23T05:35:38;11.60;;;4.17;;
20322;SDS011;10319;52.206;20.996;2022-07-23T05:38:03;12.88;;;4.43;;
20322;SDS011;10319;52.206;20.996;2022-07-23T05:40:28;13.52;;;4.72;;
20322;SDS011;10319;52.206;20.996;2022-07-23T05:42:54;13.85;;;5.25;;
20322;SDS011;10319;52.206;20.996;2022-07-23T05:45:19;12.33;;;4.70;;
20322;SDS011;10319;52.206;20.996;2022-07-23T05:47:45;14.75;;;4.90;;
20322;SDS011;10319;52.206;20.996;2022-07-23T05:50:11;11.90;;;4.45;;
20322;SDS011;10319;52.206;20.996;2022-07-23T05:52:37;12.30;;;4.60;;
20322;SDS011;10319;52.206;20.996;2022-07-23T05:55:03;12.02;;;4.47;;
20322;SDS011;10319;52.206;20.996;2022-07-23T05:57:28;14.30;;;4.35;;
20322;SDS011;10319;52.206;20.996;2022-07-23T05:59:54;10.27;;;3.80;;
20322;SDS011;10319;52.206;20.996;2022-07-23T06:02:19;13.27;;;4.20;;
20322;SDS011;10319;52.206;20.996;2022-07-23T06:04:44;13.27;;;4.35;;
20322;SDS011;10319;52.206;20.996;2022-07-23T06:07:10;12.20;;;4.13;;
20322;SDS011;10319;52.206;20.996;2022-07-23T06:09:35;14.60;;;4.65;;
20322;SDS011;10319;52.206;20.996;2022-07-23T06:12:01;11.93;;;4.23;;
20322;SDS011;10319;52.206;20.996;2022-07-23T06:14:26;14.67;;;4.77;;
20322;SDS011;10319;52.206;20.996;2022-07-23T06:16:51;13.48;;;4.45;;
20322;SDS011;10319;52.206;20.996;2022-07-23T06:19:16;12.60;;;4.38;;
20322;SDS011;10319;52.206;20.996;2022-07-23T06:21:41;11.90;;;4.23;;
20322;SDS011;10319;52.206;20.996;2022-07-23T06:24:07;11.80;;;4.05;;
20322;SDS011;10319;52.206;20.996;2022-07-23T06:26:32;13.10;;;4.45;;
20322;SDS011;10319;52.206;20.996;2022-07-23T06:28:57;11.73;;;3.80;;
20322;SDS011;10319;52.206;20.996;2022-07-23T06:31:22;10.70;;;3.70;;
20322;SDS011;10319;52.206;20.996;2022-07-23T06:33:47;12.57;;;4.47;;
20322;SDS011;10319;52.206;20.996;2022-07-23T06:36:13;11.17;;;4.17;;
20322;SDS011;10319;52.206;20.996;2022-07-23T06:38:38;11.97;;;4.30;;
20322;SDS011;10319;52.206;20.996;2022-07-23T06:41:03;12.73;;;4.53;;
20322;SDS011;10319;52.206;20.996;2022-07-23T06:43:29;14.70;;;4.30;;
20322;SDS011;10319;52.206;20.996;2022-07-23T06:45:55;11.30;;;4.10;;
20322;SDS011;10319;52.206;20.996;2022-07-23T06:48:22;14.30;;;4.50;;
20322;SDS011;10319;52.206;20.996;2022-07-23T06:50:50;13.18;;;4.53;;
20322;SDS011;10319;52.206;20.996;2022-07-23T06:53:17;10.20;;;3.63;;
20322;SDS011;10319;52.206;20.996;2022-07-23T06:55:42;10.52;;;3.55;;
20322;SDS011;10319;52.206;20.996;2022-07-23T06:58:07;12.02;;;4.15;;
20322;SDS011;10319;52.206;20.996;2022-07-23T07:00:34;13.88;;;4.40;;
20322;SDS011;10319;52.206;20.996;2022-07-23T07:03:00;11.73;;;4.28;;
20322;SDS011;10319;52.206;20.996;2022-07-23T07:05:25;11.52;;;3.80;;
20322;SDS011;10319;52.206;20.996;2022-07-23T07:07:52;12.73;;;4.15;;
20322;SDS011;10319;52.206;20.996;2022-07-23T07:10:17;10.38;;;3.70;;
20322;SDS011;10319;52.206;20.996;2022-07-23T07:12:43;12.23;;;3.78;;
20322;SDS011;10319;52.206;20.996;2022-07-23T07:15:08;11.30;;;3.70;;
20322;SDS011;10319;52.206;20.996;2022-07-23T07:17:33;11.05;;;3.60;;
20322;SDS011;10319;52.206;20.996;2022-07-23T07:19:58;10.35;;;3.55;;
20322;SDS011;10319;52.206;20.996;2022-07-23T07:22:24;12.57;;;3.87;;
20322;SDS011;10319;52.206;20.996;2022-07-23T07:24:49;10.57;;;3.90;;
20322;SDS011;10319;52.206;20.996;2022-07-23T07:27:14;12.05;;;3.90;;
20322;SDS011;10319;52.206;20.996;2022-07-23T07:29:39;15.05;;;4.20;;
20322;SDS011;10319;52.206;20.996;2022-07-23T07:32:05;11.70;;;3.83;;
20322;SDS011;10319;52.206;20.996;2022-07-23T07:34:30;12.15;;;3.80;;
20322;SDS011;10319;52.206;20.996;2022-07-23T07:36:55;12.83;;;3.97;;
20322;SDS011;10319;52.206;20.996;2022-07-23T07:39:20;10.48;;;3.58;;
20322;SDS011;10319;52.206;20.996;2022-07-23T07:41:45;12.18;;;3.80;;
20322;SDS011;10319;52.206;20.996;2022-07-23T07:44:11;11.00;;;3.73;;
20322;SDS011;10319;52.206;20.996;2022-07-23T07:46:36;12.25;;;3.80;;
20322;SDS011;10319;52.206;20.996;2022-07-23T07:49:01;12.27;;;4.00;;
20322;SDS011;10319;52.206;20.996;2022-07-23T07:51:26;11.23;;;3.90;;
20322;SDS011;10319;52.206;20.996;2022-07-23T07:53:51;12.45;;;3.90;;
20322;SDS011;10319;52.206;20.996;2022-07-23T07:56:17;11.77;;;3.87;;
20322;SDS011;10319;52.206;20.996;2022-07-23T07:58:42;11.97;;;3.90;;
20322;SDS011;10319;52.206;20.996;2022-07-23T08:01:07;11.23;;;3.70;;
20322;SDS011;10319;52.206;20.996;2022-07-23T08:03:32;11.40;;;3.92;;
20322;SDS011;10319;52.206;20.996;2022-07-23T08:05:57;11.33;;;3.73;;
20322;SDS011;10319;52.206;20.996;2022-07-23T08:08:23;10.70;;;3.70;;
20322;SDS011;10319;52.206;20.996;2022-07-23T08:10:49;11.20;;;3.92;;
20322;SDS011;10319;52.206;20.996;2022-07-23T08:13:15;13.75;;;3.83;;
20322;SDS011;10319;52.206;20.996;2022-07-23T08:15:40;11.82;;;3.75;;
20322;SDS011;10319;52.206;20.996;2022-07-23T08:18:06;10.90;;;3.65;;
20322;SDS011;10319;52.206;20.996;2022-07-23T08:20:31;11.63;;;3.80;;
20322;SDS011;10319;52.206;20.996;2022-07-23T08:22:57;10.73;;;4.17;;
20322;SDS011;10319;52.206;20.996;2022-07-23T08:25:24;13.60;;;3.95;;
20322;SDS011;10319;52.206;20.996;2022-07-23T08:27:50;11.73;;;4.20;;
20322;SDS011;10319;52.206;20.996;2022-07-23T08:30:15;11.40;;;4.10;;
20322;SDS011;10319;52.206;20.996;2022-07-23T08:32:55;11.60;;;3.80;;
20322;SDS011;10319;52.206;20.996;2022-07-23T08:35:22;12.13;;;4.07;;
20322;SDS011;10319;52.206;20.996;2022-07-23T08:37:47;12.98;;;4.50;;
20322;SDS011;10319;52.206;20.996;2022-07-23T08:40:12;12.17;;;4.00;;
20322;SDS011;10319;52.206;20.996;2022-07-23T08:42:38;11.68;;;4.10;;
20322;SDS011;10319;52.206;20.996;2022-07-23T08:45:03;13.90;;;3.70;;
20322;SDS011;10319;52.206;20.996;2022-07-23T08:47:29;10.00;;;3.60;;
20322;SDS011;10319;52.206;20.996;2022-07-23T08:49:55;10.85;;;3.63;;
20322;SDS011;10319;52.206;20.996;2022-07-23T08:52:20;11.23;;;3.85;;
20322;SDS011;10319;52.206;20.996;2022-07-23T08:54:45;12.15;;;3.70;;
20322;SDS011;10319;52.206;20.996;2022-07-23T08:57:11;10.95;;;3.72;;
20322;SDS011;10319;52.206;20.996;2022-07-23T08:59:36;11.27;;;3.73;;
20322;SDS011;10319;52.206;20.996;2022-07-23T09:02:01;12.50;;;3.80;;
20322;SDS011;10319;52.206;20.996;2022-07-23T09:04:27;10.35;;;3.20;;
20322;SDS011;10319;52.206;20.996;2022-07-23T09:06:52;10.73;;;3.55;;
20322;SDS011;10319;52.206;20.996;2022-07-23T09:09:20;10.68;;;3.63;;
20322;SDS011;10319;52.206;20.996;2022-07-23T09:11:46;10.23;;;3.30;;
20322;SDS011;10319;52.206;20.996;2022-07-23T09:14:11;11.48;;;3.75;;
20322;SDS011;10319;52.206;20.996;2022-07-23T09:16:37;11.77;;;3.60;;
20322;SDS011;10319;52.206;20.996;2022-07-23T09:19:06;11.43;;;3.65;;
20322;SDS011;10319;52.206;20.996;2022-07-23T09:21:32;9.68;;;3.17;;
20322;SDS011;10319;52.206;20.996;2022-07-23T09:23:59;11.07;;;4.00;;
20322;SDS011;10319;52.206;20.996;2022-07-23T09:26:30;12.98;;;3.40;;
20322;SDS011;10319;52.206;20.996;2022-07-23T09:28:59;10.90;;;3.20;;
20322;SDS011;10319;52.206;20.996;2022-07-23T09:31:27;11.93;;;3.70;;
20322;SDS011;10319;52.206;20.996;2022-07-23T09:34:05;11.70;;;3.17;;
20322;SDS011;10319;52.206;20.996;2022-07-23T09:36:31;9.30;;;3.22;;
20322;SDS011;10319;52.206;20.996;2022-07-23T09:38:56;11.03;;;3.33;;
20322;SDS011;10319;52.206;20.996;2022-07-23T09:41:21;10.30;;;3.35;;
20322;SDS011;10319;52.206;20.996;2022-07-23T09:43:50;8.60;;;3.10;;
20322;SDS011;10319;52.206;20.996;2022-07-23T09:46:22;10.90;;;3.55;;
20322;SDS011;10319;52.206;20.996;2022-07-23T09:48:54;10.13;;;3.03;;
20322;SDS011;10319;52.206;20.996;2022-07-23T09:51:21;9.95;;;3.30;;
20322;SDS011;10319;52.206;20.996;2022-07-23T09:53:53;11.48;;;3.70;;
20322;SDS011;10319;52.206;20.996;2022-07-23T09:56:18;10.80;;;3.30;;
20322;SDS011;10319;52.206;20.996;2022-07-23T09:58:45;9.35;;;3.00;;
20322;SDS011;10319;52.206;20.996;2022-07-23T10:01:14;8.98;;;2.72;;
20322;SDS011;10319;52.206;20.996;2022-07-23T10:03:40;9.07;;;2.75;;
20322;SDS011;10319;52.206;20.996;2022-07-23T10:06:05;11.10;;;3.30;;
20322;SDS011;10319;52.206;20.996;2022-07-23T10:08:32;9.25;;;2.78;;
20322;SDS011;10319;52.206;20.996;2022-07-23T10:10:58;9.25;;;2.90;;
20322;SDS011;10319;52.206;20.996;2022-07-23T10:13:24;8.05;;;2.80;;
20322;SDS011;10319;52.206;20.996;2022-07-23T10:15:49;9.80;;;3.25;;
20322;SDS011;10319;52.206;20.996;2022-07-23T10:18:15;13.38;;;3.40;;
20322;SDS011;10319;52.206;20.996;2022-07-23T10:20:40;8.68;;;2.88;;
20322;SDS011;10319;52.206;20.996;2022-07-23T10:23:13;9.05;;;3.08;;
20322;SDS011;10319;52.206;20.996;2022-07-23T10:25:42;9.07;;;3.00;;
20322;SDS011;10319;52.206;20.996;2022-07-23T10:38:19;7.80;;;2.60;;
20322;SDS011;10319;52.206;20.996;2022-07-23T10:40:59;9.32;;;2.80;;
20322;SDS011;10319;52.206;20.996;2022-07-23T10:43:24;7.70;;;2.67;;
20322;SDS011;10319;52.206;20.996;2022-07-23T10:45:50;9.40;;;2.72;;
20322;SDS011;10319;52.206;20.996;2022-07-23T10:48:22;9.98;;;2.90;;
20322;SDS011;10319;52.206;20.996;2022-07-23T10:53:52;9.10;;;2.90;;
20322;SDS011;10319;52.206;20.996;2022-07-23T10:59:05;10.95;;;3.00;;
20322;SDS011;10319;52.206;20.996;2022-07-23T11:01:31;8.48;;;2.80;;
20322;SDS011;10319;52.206;20.996;2022-07-23T11:03:56;11.80;;;3.28;;
20322;SDS011;10319;52.206;20.996;2022-07-23T11:06:21;10.32;;;3.03;;
20322;SDS011;10319;52.206;20.996;2022-07-23T11:08:46;9.70;;;3.07;;
20322;SDS011;10319;52.206;20.996;2022-07-23T11:11:11;10.87;;;3.20;;
20322;SDS011;10319;52.206;20.996;2022-07-23T11:13:38;8.70;;;2.92;;
20322;SDS011;10319;52.206;20.996;2022-07-23T11:16:13;9.80;;;2.78;;
20322;SDS011;10319;52.206;20.996;2022-07-23T11:31:57;10.68;;;3.30;;
20322;SDS011;10319;52.206;20.996;2022-07-23T11:37:04;10.63;;;3.55;;
20322;SDS011;10319;52.206;20.996;2022-07-23T11:39:30;10.27;;;3.00;;
20322;SDS011;10319;52.206;20.996;2022-07-23T11:41:56;10.80;;;3.25;;
20322;SDS011;10319;52.206;20.996;2022-07-23T11:44:28;11.07;;;3.33;;
20322;SDS011;10319;52.206;20.996;2022-07-23T11:47:15;8.40;;;2.90;;
20322;SDS011;10319;52.206;20.996;2022-07-23T11:49:43;10.70;;;2.90;;
20322;SDS011;10319;52.206;20.996;2022-07-23T11:52:17;8.50;;;2.80;;
20322;SDS011;10319;52.206;20.996;2022-07-23T11:54:53;9.68;;;3.03;;
20322;SDS011;10319;52.206;20.996;2022-07-23T11:57:19;10.75;;;3.05;;
20322;SDS011;10319;52.206;20.996;2022-07-23T11:59:50;8.52;;;2.85;;
20322;SDS011;10319;52.206;20.996;2022-07-23T12:02:16;9.63;;;2.80;;
20322;SDS011;10319;52.206;20.996;2022-07-23T12:04:42;8.40;;;2.77;;
20322;SDS011;10319;52.206;20.996;2022-07-23T12:09:48;7.65;;;2.50;;
20322;SDS011;10319;52.206;20.996;2022-07-23T12:12:13;6.22;;;2.47;;
20322;SDS011;10319;52.206;20.996;2022-07-23T12:14:57;8.17;;;2.70;;
20322;SDS011;10319;52.206;20.996;2022-07-23T12:17:28;7.95;;;2.67;;
20322;SDS011;10319;52.206;20.996;2022-07-23T12:19:54;10.90;;;2.75;;
20322;SDS011;10319;52.206;20.996;2022-07-23T12:22:19;8.60;;;2.75;;
20322;SDS011;10319;52.206;20.996;2022-07-23T12:24:55;8.32;;;2.60;;
20322;SDS011;10319;52.206;20.996;2022-07-23T12:27:20;7.35;;;2.40;;
20322;SDS011;10319;52.206;20.996;2022-07-23T12:29:46;8.57;;;2.60;;
20322;SDS011;10319;52.206;20.996;2022-07-23T12:34:42;7.50;;;2.60;;
20322;SDS011;10319;52.206;20.996;2022-07-23T12:37:08;5.73;;;2.10;;
20322;SDS011;10319;52.206;20.996;2022-07-23T12:39:33;7.80;;;2.70;;
20322;SDS011;10319;52.206;20.996;2022-07-23T12:41:58;11.55;;;2.50;;
20322;SDS011;10319;52.206;20.996;2022-07-23T12:44:24;7.63;;;2.55;;
20322;SDS011;10319;52.206;20.996;2022-07-23T12:46:50;8.13;;;2.83;;
20322;SDS011;10319;52.206;20.996;2022-07-23T12:49:26;9.68;;;2.85;;
20322;SDS011;10319;52.206;20.996;2022-07-23T12:51:51;8.10;;;2.65;;
20322;SDS011;10319;52.206;20.996;2022-07-23T12:54:17;8.23;;;2.50;;
20322;SDS011;10319;52.206;20.996;2022-07-23T12:56:45;9.77;;;2.60;;
20322;SDS011;10319;52.206;20.996;2022-07-23T12:59:11;8.05;;;2.55;;
20322;SDS011;10319;52.206;20.996;2022-07-23T13:01:42;8.27;;;2.50;;
20322;SDS011;10319;52.206;20.996;2022-07-23T13:06:46;8.70;;;2.50;;
20322;SDS011;10319;52.206;20.996;2022-07-23T13:09:22;9.65;;;2.83;;
20322;SDS011;10319;52.206;20.996;2022-07-23T13:11:48;8.30;;;2.42;;
20322;SDS011;10319;52.206;20.996;2022-07-23T13:14:14;5.50;;;2.13;;
20322;SDS011;10319;52.206;20.996;2022-07-23T13:16:39;9.18;;;2.70;;
20322;SDS011;10319;52.206;20.996;2022-07-23T13:19:05;8.30;;;2.50;;
20322;SDS011;10319;52.206;20.996;2022-07-23T13:21:31;9.38;;;2.75;;
20322;SDS011;10319;52.206;20.996;2022-07-23T13:23:56;8.38;;;2.53;;
20322;SDS011;10319;52.206;20.996;2022-07-23T13:26:22;8.00;;;2.58;;
20322;SDS011;10319;52.206;20.996;2022-07-23T13:28:50;10.32;;;2.92;;
20322;SDS011;10319;52.206;20.996;2022-07-23T13:31:26;9.60;;;2.90;;
20322;SDS011;10319;52.206;20.996;2022-07-23T13:33:51;8.10;;;2.85;;
20322;SDS011;10319;52.206;20.996;2022-07-23T13:36:16;10.43;;;2.75;;
20322;SDS011;10319;52.206;20.996;2022-07-23T13:38:42;10.55;;;2.75;;
20322;SDS011;10319;52.206;20.996;2022-07-23T13:41:07;9.53;;;2.60;;
20322;SDS011;10319;52.206;20.996;2022-07-23T13:43:32;8.20;;;2.53;;
20322;SDS011;10319;52.206;20.996;2022-07-23T13:45:57;8.67;;;2.87;;
20322;SDS011;10319;52.206;20.996;2022-07-23T13:48:23;9.35;;;3.03;;
20322;SDS011;10319;52.206;20.996;2022-07-23T13:50:48;8.90;;;2.85;;
20322;SDS011;10319;52.206;20.996;2022-07-23T13:53:15;7.47;;;2.83;;
20322;SDS011;10319;52.206;20.996;2022-07-23T13:55:40;7.55;;;2.80;;
20322;SDS011;10319;52.206;20.996;2022-07-23T13:58:06;8.25;;;2.75;;
20322;SDS011;10319;52.206;20.996;2022-07-23T14:00:32;7.18;;;2.50;;
20322;SDS011;10319;52.206;20.996;2022-07-23T14:02:58;7.88;;;2.85;;
20322;SDS011;10319;52.206;20.996;2022-07-23T14:05:23;12.00;;;3.50;;
20322;SDS011;10319;52.206;20.996;2022-07-23T14:07:48;11.30;;;3.70;;
20322;SDS011;10319;52.206;20.996;2022-07-23T14:10:14;9.88;;;3.20;;
20322;SDS011;10319;52.206;20.996;2022-07-23T14:12:41;10.05;;;3.15;;
20322;SDS011;10319;52.206;20.996;2022-07-23T14:15:07;10.40;;;3.13;;
20322;SDS011;10319;52.206;20.996;2022-07-23T14:17:33;10.18;;;2.70;;
20322;SDS011;10319;52.206;20.996;2022-07-23T14:19:59;11.93;;;3.20;;
20322;SDS011;10319;52.206;20.996;2022-07-23T14:22:24;9.00;;;2.72;;
20322;SDS011;10319;52.206;20.996;2022-07-23T14:24:53;9.82;;;3.03;;
20322;SDS011;10319;52.206;20.996;2022-07-23T14:27:18;9.35;;;2.70;;
20322;SDS011;10319;52.206;20.996;2022-07-23T14:29:43;8.82;;;2.90;;
20322;SDS011;10319;52.206;20.996;2022-07-23T14:32:09;7.72;;;2.88;;
20322;SDS011;10319;52.206;20.996;2022-07-23T14:34:34;10.60;;;3.20;;
20322;SDS011;10319;52.206;20.996;2022-07-23T14:36:59;10.10;;;2.85;;
20322;SDS011;10319;52.206;20.996;2022-07-23T14:39:25;18.07;;;3.37;;
20322;SDS011;10319;52.206;20.996;2022-07-23T14:41:50;24.23;;;3.58;;
20322;SDS011;10319;52.206;20.996;2022-07-23T14:44:15;18.00;;;3.45;;
20322;SDS011;10319;52.206;20.996;2022-07-23T14:46:40;18.90;;;2.77;;
20322;SDS011;10319;52.206;20.996;2022-07-23T14:49:06;18.37;;;3.10;;
20322;SDS011;10319;52.206;20.996;2022-07-23T14:51:31;18.40;;;3.33;;
20322;SDS011;10319;52.206;20.996;2022-07-23T14:53:56;12.57;;;2.80;;
20322;SDS011;10319;52.206;20.996;2022-07-23T14:56:21;14.43;;;3.23;;
20322;SDS011;10319;52.206;20.996;2022-07-23T14:58:46;13.50;;;3.17;;